Time,TemperatureF,DewpointF,PressureIn,WindDirection,WindDirectionDegrees,WindSpeedMPH,WindSpeedGustMPH,Humidity,HourlyPrecipIn,Conditions,Clouds,dailyrainin,SoftwareType,DateUTC
2013-01-27 00:18:00,10.4,0.0,30.00,NNW,337,4.3,-999.0,62,-99.99,,,0.00,Acu-Link.com,2013-01-27 05:18:00,
2013-01-27 00:33:00,10.6,0.2,30.00,NNE,22,4.3,-999.0,62,-99.99,,,0.00,Acu-Link.com,2013-01-27 05:33:00,
2013-01-27 00:48:00,10.6,0.5,30.00,WNW,292,4.3,-999.0,63,-99.99,,,0.00,Acu-Link.com,2013-01-27 05:48:00,
2013-01-27 01:03:00,10.4,0.3,30.00,NW,315,3.8,-999.0,63,-99.99,,,0.00,Acu-Link.com,2013-01-27 06:03:00,
2013-01-27 01:18:00,10.0,0.3,30.00,ESE,112,3.1,-999.0,64,-99.99,,,0.00,Acu-Link.com,2013-01-27 06:18:00,
2013-01-27 01:34:00,10.4,0.7,30.01,NE,45,3.8,-999.0,64,-99.99,,,0.00,Acu-Link.com,2013-01-27 06:34:00,
2013-01-27 01:49:00,9.7,0.3,30.02,ESE,112,4.7,-999.0,65,-99.99,,,0.00,Acu-Link.com,2013-01-27 06:49:00,
2013-01-27 02:04:00,9.5,0.5,30.03,NNE,22,2.7,-999.0,66,-99.99,,,0.00,Acu-Link.com,2013-01-27 07:04:00,
2013-01-27 02:19:00,9.3,0.6,30.04,WNW,292,3.1,-999.0,67,-99.99,,,0.00,Acu-Link.com,2013-01-27 07:19:00,
2013-01-27 02:35:00,9.5,0.8,30.03,NNW,337,4.3,-999.0,67,-99.99,,,0.00,Acu-Link.com,2013-01-27 07:35:00,
2013-01-27 02:50:00,10.0,1.0,30.03,West,270,5.8,-999.0,66,-99.99,,,0.00,Acu-Link.com,2013-01-27 07:50:00,
2013-01-27 03:05:00,10.2,1.2,30.04,NW,315,5.1,-999.0,66,-99.99,,,0.00,Acu-Link.com,2013-01-27 08:05:00,
2013-01-27 03:20:00,10.8,1.7,30.04,WNW,292,2.7,-999.0,66,-99.99,,,0.00,Acu-Link.com,2013-01-27 08:20:00,
2013-01-27 03:35:00,11.3,1.5,30.04,NW,315,4.7,-999.0,64,-99.99,,,0.00,Acu-Link.com,2013-01-27 08:35:00,
2013-01-27 03:51:00,11.1,1.4,30.04,WNW,292,4.3,-999.0,64,-99.99,,,0.00,Acu-Link.com,2013-01-27 08:51:00,
2013-01-27 04:16:00,10.9,1.5,30.05,West,270,2.2,-999.0,65,-99.99,,,0.00,Acu-Link.com,2013-01-27 09:16:00,
2013-01-27 04:32:00,10.8,1.7,30.05,SSE,157,2.7,-999.0,66,-99.99,,,0.00,Acu-Link.com,2013-01-27 09:32:00,
2013-01-27 04:47:00,9.5,1.1,30.06,North,0,2.7,-999.0,68,-99.99,,,0.00,Acu-Link.com,2013-01-27 09:47:00,
2013-01-27 05:02:00,8.8,1.3,30.07,South,180,1.6,-999.0,71,-99.99,,,0.00,Acu-Link.com,2013-01-27 10:02:00,
2013-01-27 05:17:00,8.6,1.5,30.07,South,180,1.1,-999.0,72,-99.99,,,0.00,Acu-Link.com,2013-01-27 10:17:00,
2013-01-27 05:32:00,9.0,1.5,30.07,WSW,247,2.2,-999.0,71,-99.99,,,0.00,Acu-Link.com,2013-01-27 10:32:00,
2013-01-27 05:47:00,9.5,2.0,30.08,South,180,2.7,-999.0,71,-99.99,,,0.00,Acu-Link.com,2013-01-27 10:47:00,
2013-01-27 06:03:00,10.0,2.2,30.08,ESE,112,2.7,-999.0,70,-99.99,,,0.00,Acu-Link.com,2013-01-27 11:03:00,
2013-01-27 06:18:00,9.5,1.7,30.09,West,270,1.6,-999.0,70,-99.99,,,0.00,Acu-Link.com,2013-01-27 11:18:00,
2013-01-27 06:33:00,9.3,1.9,30.10,South,180,0.0,-999.0,71,-99.99,,,0.00,Acu-Link.com,2013-01-27 11:33:00,
2013-01-27 06:48:00,9.1,2.0,30.10,WSW,247,1.1,-999.0,72,-99.99,,,0.00,Acu-Link.com,2013-01-27 11:48:00,
2013-01-27 07:03:00,9.3,2.2,30.10,East,90,1.6,-999.0,72,-99.99,,,0.00,Acu-Link.com,2013-01-27 12:03:00,
2013-01-27 07:19:00,10.4,2.6,30.10,WNW,292,2.7,-999.0,70,-99.99,,,0.00,Acu-Link.com,2013-01-27 12:19:00,
2013-01-27 07:34:00,11.7,3.2,30.10,East,90,0.0,-999.0,68,-99.99,,,0.00,Acu-Link.com,2013-01-27 12:34:00,
2013-01-27 07:49:00,12.7,3.2,30.12,NNW,337,2.7,-999.0,65,-99.99,,,0.00,Acu-Link.com,2013-01-27 12:49:00,
2013-01-27 08:04:00,13.6,3.4,30.12,WSW,247,3.8,-999.0,63,-99.99,,,0.00,Acu-Link.com,2013-01-27 13:04:00,
2013-01-27 08:19:00,13.8,2.9,30.13,WNW,292,5.8,-999.0,61,-99.99,,,0.00,Acu-Link.com,2013-01-27 13:19:00,
2013-01-27 08:35:00,15.3,2.8,30.13,SE,135,1.6,-999.0,57,-99.99,,,0.00,Acu-Link.com,2013-01-27 13:35:00,
2013-01-27 08:50:00,15.6,2.4,30.13,NW,315,3.8,-999.0,55,-99.99,,,0.00,Acu-Link.com,2013-01-27 13:50:00,
2013-01-27 09:05:00,17.1,2.9,30.14,NW,315,6.3,-999.0,53,-99.99,,,0.00,Acu-Link.com,2013-01-27 14:05:00,
2013-01-27 09:20:00,18.0,2.5,30.15,ESE,112,5.8,-999.0,50,-99.99,,,0.00,Acu-Link.com,2013-01-27 14:20:00,
2013-01-27 09:35:00,18.9,2.5,30.15,ESE,112,2.7,-999.0,48,-99.99,,,0.00,Acu-Link.com,2013-01-27 14:35:00,
2013-01-27 09:51:00,19.4,1.6,30.16,WSW,247,3.8,-999.0,45,-99.99,,,0.00,Acu-Link.com,2013-01-27 14:51:00,
2013-01-27 10:06:00,20.8,1.9,30.17,ESE,112,2.2,-999.0,43,-99.99,,,0.00,Acu-Link.com,2013-01-27 15:06:00,
2013-01-27 10:21:00,21.2,2.7,30.17,WNW,292,3.1,-999.0,44,-99.99,,,0.00,Acu-Link.com,2013-01-27 15:21:00,
2013-01-27 10:36:00,21.7,1.7,30.17,West,270,2.7,-999.0,41,-99.99,,,0.00,Acu-Link.com,2013-01-27 15:36:00,
2013-01-27 10:51:00,22.8,3.7,30.18,WNW,292,6.7,-999.0,43,-99.99,,,0.00,Acu-Link.com,2013-01-27 15:51:00,
2013-01-27 11:07:00,23.0,2.8,30.18,West,270,3.8,-999.0,41,-99.99,,,0.00,Acu-Link.com,2013-01-27 16:07:00,
2013-01-27 11:22:00,23.2,1.9,30.18,North,0,4.3,-999.0,39,-99.99,,,0.00,Acu-Link.com,2013-01-27 16:22:00,
2013-01-27 11:37:00,24.3,2.4,30.18,West,270,4.7,-999.0,38,-99.99,,,0.00,Acu-Link.com,2013-01-27 16:37:00,
2013-01-27 11:52:00,24.6,2.7,30.17,WNW,292,7.8,-999.0,38,-99.99,,,0.00,Acu-Link.com,2013-01-27 16:52:00,
2013-01-27 12:08:00,24.8,2.3,30.17,WNW,292,2.7,-999.0,37,-99.99,,,0.00,Acu-Link.com,2013-01-27 17:08:00,
2013-01-27 12:23:00,24.8,1.7,30.17,NW,315,6.3,-999.0,36,-99.99,,,0.00,Acu-Link.com,2013-01-27 17:23:00,
2013-01-27 12:38:00,25.7,1.3,30.17,NW,315,5.8,-999.0,34,-99.99,,,0.00,Acu-Link.com,2013-01-27 17:38:00,
2013-01-27 12:53:00,26.6,1.4,30.16,West,270,6.3,-999.0,33,-99.99,,,0.00,Acu-Link.com,2013-01-27 17:53:00,
2013-01-27 13:08:00,26.4,0.6,30.16,NW,315,4.3,-999.0,32,-99.99,,,0.00,Acu-Link.com,2013-01-27 18:08:00,
2013-01-27 13:24:00,27.1,1.9,30.15,NW,315,5.8,-999.0,33,-99.99,,,0.00,Acu-Link.com,2013-01-27 18:24:00,
2013-01-27 13:39:00,27.5,2.2,30.15,West,270,5.1,-999.0,33,-99.99,,,0.00,Acu-Link.com,2013-01-27 18:39:00,
2013-01-27 13:54:00,27.5,2.2,30.15,ENE,67,3.1,-999.0,33,-99.99,,,0.00,Acu-Link.com,2013-01-27 18:54:00,
2013-01-27 14:09:00,27.7,0.3,30.15,NW,315,7.4,-999.0,30,-99.99,,,0.00,Acu-Link.com,2013-01-27 19:09:00,
2013-01-27 14:24:00,27.5,0.9,30.15,NW,315,3.8,-999.0,31,-99.99,,,0.00,Acu-Link.com,2013-01-27 19:24:00,
2013-01-27 14:40:00,27.9,1.2,30.15,WNW,292,6.3,-999.0,31,-99.99,,,0.00,Acu-Link.com,2013-01-27 19:40:00,
2013-01-27 14:55:00,28.0,2.0,30.16,NW,315,2.7,-999.0,32,-99.99,,,0.00,Acu-Link.com,2013-01-27 19:55:00,
2013-01-27 15:10:00,28.0,2.0,30.15,NW,315,3.8,-999.0,32,-99.99,,,0.00,Acu-Link.com,2013-01-27 20:10:00,
2013-01-27 15:25:00,27.5,0.9,30.15,WNW,292,3.8,-999.0,31,-99.99,,,0.00,Acu-Link.com,2013-01-27 20:25:00,
2013-01-27 15:40:00,27.1,1.2,30.15,WNW,292,2.7,-999.0,32,-99.99,,,0.00,Acu-Link.com,2013-01-27 20:40:00,
2013-01-27 15:56:00,27.1,1.9,30.15,SW,225,4.7,-999.0,33,-99.99,,,0.00,Acu-Link.com,2013-01-27 20:56:00,
2013-01-27 16:11:00,26.2,1.1,30.15,WNW,292,4.3,-999.0,33,-99.99,,,0.00,Acu-Link.com,2013-01-27 21:11:00,
2013-01-27 16:26:00,25.5,1.1,30.17,NW,315,2.7,-999.0,34,-99.99,,,0.00,Acu-Link.com,2013-01-27 21:26:00,
2013-01-27 16:41:00,25.0,0.0,30.18,NNW,337,4.3,-999.0,33,-99.99,,,0.00,Acu-Link.com,2013-01-27 21:41:00,
2013-01-27 16:57:00,24.6,-0.3,30.18,West,270,3.8,-999.0,33,-99.99,,,0.00,Acu-Link.com,2013-01-27 21:57:00,
2013-01-27 17:12:00,23.9,-0.3,30.19,NNW,337,1.1,-999.0,34,-99.99,,,0.00,Acu-Link.com,2013-01-27 22:12:00,
2013-01-27 17:27:00,22.5,-1.0,30.19,NW,315,0.0,-999.0,35,-99.99,,,0.00,Acu-Link.com,2013-01-27 22:27:00,
2013-01-27 17:42:00,21.7,0.1,30.20,WNW,292,2.2,-999.0,38,-99.99,,,0.00,Acu-Link.com,2013-01-27 22:42:00,
2013-01-27 17:57:00,21.0,-0.6,30.20,NNW,337,3.1,-999.0,38,-99.99,,,0.00,Acu-Link.com,2013-01-27 22:57:00,
2013-01-27 18:13:00,20.3,-0.1,30.21,WNW,292,1.1,-999.0,40,-99.99,,,0.00,Acu-Link.com,2013-01-27 23:13:00,
2013-01-27 18:28:00,19.8,-0.6,30.21,NW,315,0.0,-999.0,40,-99.99,,,0.00,Acu-Link.com,2013-01-27 23:28:00,
2013-01-27 18:43:00,19.9,-0.4,30.22,NW,315,2.2,-999.0,40,-99.99,,,0.00,Acu-Link.com,2013-01-27 23:43:00,
2013-01-27 18:58:00,19.9,-0.4,30.21,NW,315,1.6,-999.0,40,-99.99,,,0.00,Acu-Link.com,2013-01-27 23:58:00,
2013-01-27 19:13:00,19.4,-0.4,30.21,NNW,337,1.6,-999.0,41,-99.99,,,0.00,Acu-Link.com,2013-01-28 00:13:00,
2013-01-27 19:29:00,18.9,-0.4,30.21,WNW,292,1.1,-999.0,42,-99.99,,,0.00,Acu-Link.com,2013-01-28 00:29:00,
2013-01-27 19:44:00,18.7,0.4,30.21,West,270,0.0,-999.0,44,-99.99,,,0.00,Acu-Link.com,2013-01-28 00:44:00,
2013-01-27 19:59:00,18.0,0.7,30.22,ESE,112,2.2,-999.0,46,-99.99,,,0.00,Acu-Link.com,2013-01-28 00:59:00,
2013-01-27 20:14:00,18.3,0.6,30.22,NNW,337,2.7,-999.0,45,-99.99,,,0.00,Acu-Link.com,2013-01-28 01:14:00,
2013-01-27 20:29:00,17.1,-0.6,30.21,ENE,67,0.0,-999.0,45,-99.99,,,0.00,Acu-Link.com,2013-01-28 01:29:00,
2013-01-27 20:45:00,16.7,0.0,30.21,NNE,22,1.1,-999.0,47,-99.99,,,0.00,Acu-Link.com,2013-01-28 01:45:00,
2013-01-27 21:00:00,16.9,0.2,30.21,WNW,292,1.6,-999.0,47,-99.99,,,0.00,Acu-Link.com,2013-01-28 02:00:00,
2013-01-27 21:15:00,16.9,1.5,30.21,North,0,1.1,-999.0,50,-99.99,,,0.00,Acu-Link.com,2013-01-28 02:15:00,
2013-01-27 21:30:00,16.5,1.2,30.21,SSE,157,0.0,-999.0,50,-99.99,,,0.00,Acu-Link.com,2013-01-28 02:30:00,
2013-01-27 21:46:00,15.6,1.2,30.22,NW,315,0.0,-999.0,52,-99.99,,,0.00,Acu-Link.com,2013-01-28 02:46:00,
2013-01-27 22:01:00,15.1,0.7,30.22,West,270,0.0,-999.0,52,-99.99,,,0.00,Acu-Link.com,2013-01-28 03:01:00,
2013-01-27 22:16:00,15.4,0.6,30.21,North,0,1.1,-999.0,51,-99.99,,,0.00,Acu-Link.com,2013-01-28 03:16:00,
2013-01-27 22:31:00,15.4,0.6,30.22,West,270,1.6,-999.0,51,-99.99,,,0.00,Acu-Link.com,2013-01-28 03:31:00,
2013-01-27 22:46:00,15.6,0.7,30.23,WNW,292,0.0,-999.0,51,-99.99,,,0.00,Acu-Link.com,2013-01-28 03:46:00,
2013-01-27 23:02:00,15.1,0.7,30.23,NW,315,0.0,-999.0,52,-99.99,,,0.00,Acu-Link.com,2013-01-28 04:02:00,
2013-01-27 23:17:00,14.4,1.2,30.23,West,270,0.0,-999.0,55,-99.99,,,0.00,Acu-Link.com,2013-01-28 04:17:00,
2013-01-27 23:32:00,13.8,1.8,30.22,NW,315,0.0,-999.0,58,-99.99,,,0.00,Acu-Link.com,2013-01-28 04:32:00,
2013-01-27 23:47:00,13.5,1.8,30.22,SW,225,0.0,-999.0,59,-99.99,,,0.00,Acu-Link.com,2013-01-28 04:47:00,